Aviation Digital Data Service (ADDS)

Output produced by METARs form (2354 UTC 19 October 2017)
found at http://aviationweather.gov/adds/metars/
 
METAR text: KPRB 192253Z AUTO 17008G16KT 10SM BKN065 27/12 A2988 RMK AO2 SLP114 T02720117 TSNO
Conditions at: KPRB (PASO ROBLES , CA, US) observed 2253 UTC 19 October 2017
Temperature: 27.2°C (81°F)
Dewpoint: 11.7°C (53°F) [RH = 38%]
Pressure (altimeter): 29.88 inches Hg (1011.9 mb)
[Sea-level pressure: 1011.4 mb]
Winds: from the S (170 degrees) at 9 MPH (8 knots; 4.2 m/s)
gusting to 18 MPH (16 knots; 8.3 m/s)
Visibility: 10 or more miles (16+ km)
Ceiling: 6500 feet AGL
Clouds: broken clouds at 6500 feet AGL
Weather: automated observation with no human augmentation;
there may or may not be significant weather present at this time